Seal Rock, Oregon
Current Conditions -  °F | °C
As of 1:55 PM on Monday 20 Oct 2014 (Local Time) from KONP Reporting Station
Haze Haze  
Wind Chill: 63°   Ceiling: Unl
Heat Index: 63°   Visibility: 5mi
Dew Point: 54°   Wind: 20mph
Humidity: 72%   Direction: 200°SSW
Pressure: 29.82"   Gusts: 26mph
Location:  44.49°N, 124.08°W
Report Text: KONP 202055Z AUTO 20017G23KT 5SM HZ CLR 17/12 A2982 RMK AO2
Loading
Personal Weather Stations






























Interactive Weather Map
Tropical Storm Tracking
New forecast layout! Learn more

10-Day Weather Forecast

Advertisements
Track Severe Weather on mobile